createdAt,value
2018-04-02T04:00:48.415Z,0
2018-04-02T04:01:13.916Z,0
2018-04-02T04:01:39.414Z,0
2018-04-02T04:02:04.894Z,0
2018-04-02T04:02:30.399Z,0
2018-04-02T04:02:55.885Z,0
2018-04-02T04:03:21.393Z,0
2018-04-02T04:03:46.882Z,0
2018-04-02T04:04:12.365Z,0
2018-04-02T04:04:37.873Z,0
2018-04-02T04:05:03.329Z,0
2018-04-02T04:06:12.028Z,0
2018-04-02T04:06:37.530Z,0
2018-04-02T04:07:03.030Z,0
2018-04-02T04:07:28.544Z,0
2018-04-02T04:07:54.031Z,0
2018-04-02T04:08:19.484Z,0
2018-04-02T04:08:44.955Z,0
2018-04-02T04:09:10.432Z,0
2018-04-02T04:09:35.923Z,0
2018-04-02T04:10:01.420Z,0
2018-04-02T04:10:26.904Z,0
2018-04-02T04:10:52.368Z,0
2018-04-02T04:11:17.853Z,0
2018-04-02T04:11:43.339Z,0
2018-04-02T04:12:08.813Z,0
2018-04-02T04:12:34.296Z,0
2018-04-02T04:12:59.758Z,0
2018-04-02T04:13:25.247Z,0
2018-04-02T04:13:50.745Z,0
2018-04-02T04:14:16.235Z,0
2018-04-02T04:14:41.737Z,0
2018-04-02T04:15:07.229Z,0
2018-04-02T04:15:32.742Z,0
2018-04-02T04:15:58.245Z,0
2018-04-02T04:16:23.729Z,0
2018-04-02T04:16:49.212Z,0
2018-04-02T04:17:14.720Z,0
2018-04-02T04:17:40.199Z,0
2018-04-02T04:18:05.701Z,0
2018-04-02T04:18:31.210Z,0
2018-04-02T04:18:56.690Z,0
2018-04-02T04:19:22.201Z,0
2018-04-02T04:19:47.667Z,0
2018-04-02T04:20:13.131Z,0
2018-04-02T04:20:38.612Z,0
2018-04-02T04:21:04.076Z,0
2018-04-02T04:21:29.542Z,0
2018-04-02T04:21:55.042Z,0
2018-04-02T04:22:20.530Z,0
2018-04-02T04:22:46.027Z,0
2018-04-02T04:23:11.510Z,0
2018-04-02T04:23:36.971Z,0
2018-04-02T04:24:02.481Z,0
2018-04-02T04:24:27.941Z,0
2018-04-02T04:24:53.427Z,0
2018-04-02T04:25:18.926Z,0
2018-04-02T04:25:44.385Z,0
2018-04-02T04:26:09.880Z,0
2018-04-02T04:26:35.337Z,0
2018-04-02T04:27:00.837Z,0
2018-04-02T04:27:26.334Z,0
2018-04-02T04:27:51.833Z,0
2018-04-02T04:28:17.310Z,0
2018-04-02T04:28:42.762Z,0
2018-04-02T04:29:08.256Z,0
2018-04-02T04:29:33.728Z,0
2018-04-02T04:29:59.220Z,0
2018-04-02T04:30:24.713Z,0
2018-04-02T04:30:50.236Z,0
2018-04-02T04:31:15.739Z,0
2018-04-02T04:31:41.240Z,0
2018-04-02T04:32:06.717Z,0
2018-04-02T04:32:32.183Z,0
2018-04-02T04:32:57.686Z,0
2018-04-02T04:33:23.164Z,0
2018-04-02T04:33:48.665Z,4
2018-04-02T04:34:14.141Z,4
2018-04-02T04:34:39.604Z,4
2018-04-02T04:35:05.084Z,0
2018-04-02T04:35:30.567Z,0
2018-04-02T04:35:56.058Z,4
2018-04-02T04:36:21.527Z,4
2018-04-02T04:36:47.027Z,4
2018-04-02T04:37:12.509Z,0
2018-04-02T04:37:37.982Z,4
2018-04-02T04:38:03.472Z,4
2018-04-02T04:38:28.966Z,4
2018-04-02T04:38:54.444Z,4
2018-04-02T04:39:19.938Z,4
2018-04-02T04:39:45.402Z,4
2018-04-02T04:40:10.907Z,8
2018-04-02T04:40:36.428Z,8
2018-04-02T04:41:01.890Z,4
2018-04-02T04:42:20.790Z,8
2018-04-02T04:42:46.294Z,8
2018-04-02T04:43:11.782Z,8
2018-04-02T04:43:37.251Z,8
2018-04-02T04:44:02.736Z,12
2018-04-02T04:44:28.215Z,12
2018-04-02T04:45:52.200Z,12
2018-04-02T04:46:17.697Z,12
2018-04-02T04:46:43.190Z,16
2018-04-02T04:47:08.698Z,12
2018-04-02T04:47:34.179Z,12
2018-04-02T04:47:59.640Z,12
2018-04-02T04:49:18.648Z,12
2018-04-02T04:49:44.128Z,12
2018-04-02T04:50:09.617Z,12
2018-04-02T04:50:35.130Z,16
2018-04-02T04:51:00.587Z,12
2018-04-02T04:51:26.084Z,16
2018-04-02T04:51:51.577Z,16
2018-04-02T04:52:17.074Z,20
2018-04-02T04:52:42.531Z,20
2018-04-02T04:53:08.059Z,24
2018-04-02T04:53:33.529Z,24
2018-04-02T04:53:59.010Z,28
2018-04-02T04:54:24.452Z,24
2018-04-02T04:54:49.906Z,28
2018-04-02T04:55:15.433Z,28
2018-04-02T04:55:40.967Z,32
2018-04-02T04:56:06.492Z,32
2018-04-02T04:56:31.959Z,36
2018-04-02T04:56:57.439Z,36
2018-04-02T04:57:22.942Z,40
2018-04-02T04:57:48.450Z,40
2018-04-02T04:58:13.948Z,40
2018-04-02T04:59:27.826Z,44
2018-04-02T04:59:53.269Z,44
2018-04-02T05:00:18.758Z,48
2018-04-02T05:00:44.260Z,52
2018-04-02T05:01:09.755Z,60
2018-04-02T05:01:35.251Z,72
2018-04-02T05:02:00.721Z,76
2018-04-02T05:02:26.198Z,84
2018-04-02T05:02:51.668Z,84
2018-04-02T05:03:17.154Z,88
2018-04-02T05:03:42.669Z,92
2018-04-02T05:04:08.153Z,96
2018-04-02T05:04:33.643Z,96
2018-04-02T05:04:59.126Z,96
2018-04-02T05:05:24.598Z,100
2018-04-02T05:05:50.097Z,96
2018-04-02T05:06:15.574Z,100
2018-04-02T05:06:41.063Z,104
2018-04-02T05:07:06.533Z,112
2018-04-02T05:07:31.988Z,116
2018-04-02T05:07:57.502Z,120
2018-04-02T05:08:22.967Z,124
2018-04-02T05:08:48.482Z,140
2018-04-02T05:09:13.978Z,148
2018-04-02T05:09:39.456Z,152
2018-04-02T05:10:04.960Z,152
2018-04-02T05:10:30.463Z,168
2018-04-02T05:10:55.951Z,172
2018-04-02T05:11:21.435Z,184
2018-04-02T05:11:46.911Z,188
2018-04-02T05:12:12.411Z,196
2018-04-02T05:12:37.857Z,216
2018-04-02T05:13:03.351Z,216
2018-04-02T05:13:28.842Z,220
2018-04-02T05:13:54.313Z,228
2018-04-02T05:14:19.773Z,236
2018-04-02T05:14:45.267Z,248
2018-04-02T05:15:10.793Z,252
2018-04-02T05:15:36.294Z,248
2018-04-02T05:16:01.782Z,252
2018-04-02T05:16:27.284Z,260
2018-04-02T05:16:52.770Z,252
2018-04-02T05:17:18.233Z,248
2018-04-02T05:17:43.730Z,256
2018-04-02T05:18:09.204Z,248
2018-04-02T05:18:34.670Z,264
2018-04-02T05:19:00.165Z,288
2018-04-02T05:19:25.664Z,292
2018-04-02T05:19:51.159Z,296
2018-04-02T05:20:16.666Z,308
2018-04-02T05:20:42.150Z,308
2018-04-02T05:21:07.624Z,304
2018-04-02T05:21:33.152Z,308
2018-04-02T05:21:58.639Z,308
2018-04-02T05:22:24.159Z,296
2018-04-02T05:22:49.648Z,268
2018-04-02T05:23:15.160Z,272
2018-04-02T05:23:40.634Z,300
2018-04-02T05:24:06.140Z,320
2018-04-02T05:24:31.627Z,356
2018-04-02T05:24:57.122Z,396
2018-04-02T05:25:22.622Z,420
2018-04-02T05:25:48.102Z,416
2018-04-02T05:26:13.615Z,420
2018-04-02T05:26:39.121Z,428
2018-04-02T05:27:04.620Z,436
2018-04-02T05:27:30.131Z,448
2018-04-02T05:27:55.618Z,452
2018-04-02T05:28:21.099Z,444
2018-04-02T05:28:46.638Z,428
2018-04-02T05:29:12.149Z,408
2018-04-02T05:29:37.651Z,388
2018-04-02T05:30:03.099Z,372
2018-04-02T05:30:28.592Z,380
2018-04-02T05:30:54.107Z,408
2018-04-02T05:31:19.607Z,432
2018-04-02T05:31:45.070Z,436
2018-04-02T05:32:48.681Z,432
2018-04-02T05:33:14.191Z,464
2018-04-02T05:33:39.669Z,488
2018-04-02T05:34:05.146Z,512
2018-04-02T05:34:30.615Z,536
2018-04-02T05:34:56.104Z,532
2018-04-02T05:35:21.572Z,532
2018-04-02T05:35:47.062Z,552
2018-04-02T05:36:12.529Z,588
2018-04-02T05:36:38.024Z,600
2018-04-02T05:37:03.513Z,584
2018-04-02T05:37:28.986Z,568
2018-04-02T05:37:54.455Z,576
2018-04-02T05:38:19.938Z,580
2018-04-02T05:38:45.438Z,580
2018-04-02T05:39:10.929Z,584
2018-04-02T05:39:36.416Z,580
2018-04-02T05:40:01.947Z,604
2018-04-02T05:40:27.431Z,648
2018-04-02T05:40:52.956Z,684
2018-04-02T05:41:18.456Z,712
2018-04-02T05:41:44.005Z,724
2018-04-02T05:42:09.497Z,752
2018-04-02T05:42:34.972Z,804
2018-04-02T05:43:00.472Z,856
2018-04-02T05:43:25.937Z,896
2018-04-02T05:43:51.429Z,928
2018-04-02T05:44:16.938Z,948
2018-04-02T05:44:42.410Z,964
2018-04-02T05:45:07.900Z,964
2018-04-02T05:45:33.362Z,972
2018-04-02T05:45:58.856Z,992
2018-04-02T05:46:24.343Z,1008
2018-04-02T05:46:49.816Z,1016
2018-04-02T05:47:15.286Z,1020
2018-04-02T05:47:40.773Z,1020
2018-04-02T05:48:06.277Z,1016
2018-04-02T05:48:31.759Z,984
2018-04-02T05:48:57.251Z,952
2018-04-02T05:49:22.759Z,912
2018-04-02T05:49:48.246Z,896
2018-04-02T05:50:13.721Z,920
2018-04-02T05:50:39.218Z,960
2018-04-02T05:51:04.704Z,1012
2018-04-02T05:51:30.178Z,1048
2018-04-02T05:51:55.661Z,1048
2018-04-02T05:52:21.148Z,1032
2018-04-02T05:52:46.649Z,1004
2018-04-02T05:53:12.163Z,996
2018-04-02T05:53:37.671Z,1048
2018-04-02T05:54:03.204Z,1096
2018-04-02T05:54:28.666Z,1096
2018-04-02T05:54:54.153Z,1096
2018-04-02T05:55:19.655Z,1084
2018-04-02T05:56:38.597Z,1084
2018-04-02T05:57:04.104Z,1176
2018-04-02T05:57:29.616Z,1248
2018-04-02T05:57:55.086Z,1272
2018-04-02T05:58:20.542Z,1288
2018-04-02T05:58:46.006Z,1296
2018-04-02T05:59:11.475Z,1320
2018-04-02T05:59:36.952Z,1376
2018-04-02T06:00:02.429Z,1480
2018-04-02T06:00:27.902Z,1656
2018-04-02T06:00:53.373Z,1828
2018-04-02T06:01:18.820Z,1988
2018-04-02T06:01:44.303Z,2092
2018-04-02T06:02:09.795Z,2124
2018-04-02T06:02:35.247Z,2164
2018-04-02T06:03:00.726Z,2196
2018-04-02T06:03:26.208Z,2200
2018-04-02T06:03:51.717Z,2136
2018-04-02T06:04:17.232Z,2076
2018-04-02T06:04:42.652Z,2032
2018-04-02T06:05:08.177Z,2000
2018-04-02T06:05:33.653Z,1976
2018-04-02T06:05:59.146Z,2040
2018-04-02T06:06:24.623Z,2156
2018-04-02T06:06:50.129Z,2216
2018-04-02T06:07:15.574Z,2300
2018-04-02T06:07:41.057Z,2324
2018-04-02T06:08:06.560Z,2276
2018-04-02T06:08:32.065Z,2204
2018-04-02T06:08:57.570Z,2228
2018-04-02T06:09:23.049Z,2344
2018-04-02T06:09:48.526Z,2488
2018-04-02T06:10:13.986Z,2604
2018-04-02T06:10:39.509Z,2720
2018-04-02T06:11:04.999Z,2792
2018-04-02T06:11:30.509Z,2820
2018-04-02T06:11:56.017Z,2836
2018-04-02T06:12:21.518Z,2868
2018-04-02T06:12:47.012Z,2936
2018-04-02T06:13:12.480Z,2976
2018-04-02T06:13:37.957Z,3040
2018-04-02T06:14:03.448Z,3168
2018-04-02T06:14:28.922Z,3340
2018-04-02T06:14:54.404Z,3464
2018-04-02T06:15:19.870Z,3528
2018-04-02T06:15:45.341Z,3524
2018-04-02T06:16:10.833Z,3504
2018-04-02T06:16:36.403Z,3480
2018-04-02T06:17:01.836Z,3468
2018-04-02T06:17:27.320Z,3468
2018-04-02T06:17:52.813Z,3500
2018-04-02T06:18:18.286Z,3548
2018-04-02T06:18:43.841Z,3640
2018-04-02T06:19:09.339Z,3716
2018-04-02T06:19:34.841Z,3792
2018-04-02T06:20:00.319Z,3888
2018-04-02T06:20:25.846Z,3988
2018-04-02T06:20:51.343Z,4052
2018-04-02T06:21:16.849Z,4116
2018-04-02T06:21:42.332Z,4184
2018-04-02T06:22:07.799Z,4204
2018-04-02T06:22:33.325Z,4224
2018-04-02T06:22:58.854Z,4220
2018-04-02T06:23:24.351Z,4176
2018-04-02T06:23:49.829Z,4140
2018-04-02T06:24:15.327Z,4140
2018-04-02T06:24:40.831Z,4148
2018-04-02T06:25:06.328Z,4116
2018-04-02T06:25:31.818Z,4016
2018-04-02T06:25:57.285Z,3868
2018-04-02T06:26:22.776Z,3748
2018-04-02T06:26:48.231Z,3636
2018-04-02T06:27:13.747Z,3544
2018-04-02T06:27:39.238Z,3448
2018-04-02T06:28:04.728Z,3364
2018-04-02T06:28:30.214Z,3224
2018-04-02T06:28:55.695Z,3116
2018-04-02T06:29:21.213Z,3040
2018-04-02T06:29:46.712Z,3000
2018-04-02T06:30:12.189Z,2964
2018-04-02T06:30:37.685Z,2936
2018-04-02T06:31:03.214Z,2936
2018-04-02T06:31:28.686Z,2944
2018-04-02T06:31:54.171Z,2984
2018-04-02T06:32:19.676Z,3036
2018-04-02T06:32:45.223Z,3092
2018-04-02T06:33:10.685Z,3132
2018-04-02T06:33:36.161Z,3176
2018-04-02T06:34:01.683Z,3224
2018-04-02T06:34:27.180Z,3288
2018-04-02T06:34:52.680Z,3376
2018-04-02T06:35:18.173Z,3464
2018-04-02T06:35:43.666Z,3588
2018-04-02T06:36:09.172Z,3724
2018-04-02T06:36:34.671Z,3828
2018-04-02T06:37:00.169Z,3896
2018-04-02T06:37:25.662Z,3940
2018-04-02T06:37:51.118Z,4012
2018-04-02T06:38:16.610Z,4052
2018-04-02T06:38:42.104Z,4120
2018-04-02T06:39:07.589Z,4240
2018-04-02T06:39:33.075Z,4456
2018-04-02T06:39:58.573Z,4764
2018-04-02T06:40:24.103Z,5128
2018-04-02T06:40:49.633Z,5500
2018-04-02T06:41:15.073Z,5840
2018-04-02T06:41:40.572Z,6092
2018-04-02T06:42:06.124Z,6228
2018-04-02T06:42:31.648Z,6224
2018-04-02T06:42:57.165Z,6128
2018-04-02T06:43:22.709Z,6088
2018-04-02T06:43:48.204Z,6108
2018-04-02T06:44:13.702Z,6132
2018-04-02T06:44:39.184Z,6060
2018-04-02T06:45:04.654Z,5900
2018-04-02T06:45:30.117Z,5696
2018-04-02T06:46:33.741Z,5060
2018-04-02T06:46:59.222Z,4852
2018-04-02T06:47:24.754Z,4688
2018-04-02T06:47:50.244Z,4564
2018-04-02T06:48:15.729Z,4496
2018-04-02T06:48:41.190Z,4488
2018-04-02T06:49:06.676Z,4480
2018-04-02T06:49:32.186Z,4444
2018-04-02T06:49:57.646Z,4360
2018-04-02T06:50:23.140Z,4232
2018-04-02T06:50:48.652Z,4092
2018-04-02T06:51:14.125Z,3972
2018-04-02T06:51:39.624Z,3904
2018-04-02T06:52:05.085Z,3872
2018-04-02T06:52:30.606Z,3884
2018-04-02T06:52:56.136Z,3944
2018-04-02T06:53:21.531Z,4016
2018-04-02T06:53:47.032Z,4076
2018-04-02T06:54:12.518Z,4144
2018-04-02T06:55:21.199Z,4336
2018-04-02T06:55:46.694Z,4392
2018-04-02T06:56:12.197Z,4444
2018-04-02T06:56:37.689Z,4504
2018-04-02T06:57:03.165Z,4580
2018-04-02T06:57:28.654Z,4668
2018-04-02T06:57:54.098Z,4764
2018-04-02T06:58:19.609Z,4852
2018-04-02T06:58:45.079Z,4916
2018-04-02T06:59:10.571Z,4952
2018-04-02T06:59:36.050Z,4984
2018-04-02T07:00:01.538Z,5024
2018-04-02T07:00:27.052Z,5080
2018-04-02T07:00:52.506Z,5120
2018-04-02T07:01:17.978Z,5156
2018-04-02T07:01:43.447Z,5184
2018-04-02T07:02:08.934Z,5204
2018-04-02T07:02:34.425Z,5212
2018-04-02T07:02:59.925Z,5232
2018-04-02T07:03:25.430Z,5248
2018-04-02T07:03:50.905Z,5272
2018-04-02T07:04:16.405Z,5300
2018-04-02T07:04:41.909Z,5308
2018-04-02T07:05:07.404Z,5320
2018-04-02T07:05:32.856Z,5336
2018-04-02T07:06:46.681Z,5472
2018-04-02T07:07:12.169Z,5544
2018-04-02T07:07:37.667Z,5612
2018-04-02T07:08:03.146Z,5696
2018-04-02T07:08:28.633Z,5800
2018-04-02T07:08:54.136Z,5916
2018-04-02T07:09:19.609Z,6032
2018-04-02T07:09:45.090Z,6148
2018-04-02T07:10:10.559Z,6248
2018-04-02T07:10:36.044Z,6328
2018-04-02T07:11:01.550Z,6396
2018-04-02T07:11:27.017Z,6456
2018-04-02T07:11:52.501Z,6536
2018-04-02T07:12:18.050Z,6632
2018-04-02T07:12:43.539Z,6740
2018-04-02T07:13:09.012Z,6856
2018-04-02T07:13:34.535Z,6992
2018-04-02T07:13:59.984Z,7132
2018-04-02T07:14:25.482Z,7240
2018-04-02T07:14:50.962Z,7344
2018-04-02T07:15:16.472Z,7432
2018-04-02T07:15:41.956Z,7508
2018-04-02T07:16:07.472Z,7568
2018-04-02T07:16:32.951Z,7616
2018-04-02T07:17:51.864Z,7704
2018-04-02T07:18:17.342Z,7700
2018-04-02T07:18:42.835Z,7668
2018-04-02T07:19:08.363Z,7608
2018-04-02T07:19:33.852Z,7528
2018-04-02T07:19:59.340Z,7428
2018-04-02T07:20:24.841Z,7312
2018-04-02T07:20:50.315Z,7184
2018-04-02T07:21:15.802Z,7052
2018-04-02T07:21:41.306Z,6924
2018-04-02T07:22:06.826Z,6796
2018-04-02T07:22:32.453Z,6660
2018-04-02T07:22:58.108Z,6520
2018-04-02T07:23:23.930Z,6376
2018-04-02T07:23:49.476Z,6240
2018-04-02T07:24:15.095Z,6120
2018-04-02T07:24:40.550Z,6016
2018-04-02T07:25:06.025Z,5912
2018-04-02T07:25:31.581Z,5832
2018-04-02T07:25:57.092Z,5772
2018-04-02T07:26:22.566Z,5732
2018-04-02T07:26:48.092Z,5704
2018-04-02T07:27:13.537Z,5708
2018-04-02T07:27:39.029Z,5736
2018-04-02T07:28:04.537Z,5788
2018-04-02T07:28:30.028Z,5844
2018-04-02T07:28:55.480Z,5884
2018-04-02T07:29:21.009Z,5904
2018-04-02T07:29:46.479Z,5900
2018-04-02T07:30:11.988Z,5868
2018-04-02T07:30:37.477Z,5820
2018-04-02T07:31:02.968Z,5740
2018-04-02T07:31:28.460Z,5652
2018-04-02T07:31:53.987Z,5580
2018-04-02T07:32:19.517Z,5528
2018-04-02T07:32:45.134Z,5488
2018-04-02T07:33:10.599Z,5480
2018-04-02T07:33:36.110Z,5492
2018-04-02T07:34:01.574Z,5520
2018-04-02T07:34:27.066Z,5568
2018-04-02T07:34:52.530Z,5636
2018-04-02T07:36:16.608Z,5936
2018-04-02T07:36:42.099Z,6032
2018-04-02T07:37:07.642Z,6132
2018-04-02T07:37:33.151Z,6236
2018-04-02T07:37:58.691Z,6340
2018-04-02T07:38:24.246Z,6500
2018-04-02T07:38:49.754Z,6656
2018-04-02T07:39:15.261Z,6820
2018-04-02T07:39:40.770Z,7008
2018-04-02T07:40:06.256Z,7216
2018-04-02T07:40:31.726Z,7440
2018-04-02T07:40:57.207Z,7668
2018-04-02T07:41:22.685Z,7880
2018-04-02T07:41:48.152Z,8212
2018-04-02T07:42:13.656Z,8552
2018-04-02T07:42:39.204Z,8816
2018-04-02T07:43:04.644Z,9060
2018-04-02T07:43:30.194Z,9136
2018-04-02T07:44:33.821Z,9396
2018-04-02T07:44:59.310Z,9440
2018-04-02T07:45:24.780Z,9696
2018-04-02T07:45:50.257Z,9828
2018-04-02T07:46:15.777Z,10048
2018-04-02T07:46:41.254Z,10016
2018-04-02T07:47:06.795Z,9644
2018-04-02T07:47:32.286Z,9672
2018-04-02T07:47:57.800Z,10008
2018-04-02T07:48:23.280Z,9940
2018-04-02T07:48:48.769Z,10140
2018-04-02T07:49:14.330Z,10292
2018-04-02T07:49:39.803Z,10128
2018-04-02T07:50:05.300Z,10016
2018-04-02T07:50:30.785Z,9756
2018-04-02T07:50:56.259Z,9640
2018-04-02T07:51:21.767Z,9892
2018-04-02T07:51:47.276Z,10036
2018-04-02T07:52:12.742Z,9992
2018-04-02T07:52:38.255Z,9780
2018-04-02T07:53:03.709Z,9608
2018-04-02T07:53:29.187Z,9632
2018-04-02T07:53:54.654Z,9472
2018-04-02T07:54:20.176Z,9236
2018-04-02T07:54:45.697Z,9188
2018-04-02T07:55:11.215Z,9416
2018-04-02T07:55:36.640Z,9784
2018-04-02T07:56:02.151Z,10008
2018-04-02T07:56:27.638Z,10192
2018-04-02T07:56:53.128Z,10396
2018-04-02T07:57:18.622Z,10568
2018-04-02T07:57:44.114Z,10728
2018-04-02T07:58:09.570Z,10852
2018-04-02T07:58:35.050Z,10936
2018-04-02T07:59:00.564Z,10940
2018-04-02T07:59:26.081Z,10896
2018-04-02T07:59:51.635Z,10804
2018-04-02T08:00:17.095Z,10648
2018-04-02T08:00:42.566Z,10416
2018-04-02T08:01:08.035Z,10164
2018-04-02T08:01:33.536Z,9892
2018-04-02T08:01:59.034Z,9608
2018-04-02T08:02:24.527Z,9344
2018-04-02T08:02:50.072Z,9068
2018-04-02T08:03:15.534Z,8884
2018-04-02T08:03:41.036Z,8780
2018-04-02T08:04:06.524Z,8804
2018-04-02T08:04:31.982Z,8892
2018-04-02T08:04:57.433Z,9072
2018-04-02T08:05:22.914Z,9320
2018-04-02T08:05:48.388Z,9720
2018-04-02T08:06:13.939Z,10088
2018-04-02T08:06:39.384Z,10260
2018-04-02T08:07:04.947Z,10400
2018-04-02T08:07:30.484Z,10572
2018-04-02T08:07:55.950Z,10768
2018-04-02T08:08:21.442Z,10916
2018-04-02T08:08:46.968Z,11068
2018-04-02T08:09:12.469Z,11296
2018-04-02T08:09:38.018Z,11192
2018-04-02T08:10:03.519Z,11240
2018-04-02T08:10:29.292Z,11128
2018-04-02T08:10:54.776Z,11036
2018-04-02T08:11:20.235Z,11020
2018-04-02T08:11:45.756Z,11132
2018-04-02T08:12:11.246Z,10996
2018-04-02T08:12:36.754Z,10740
2018-04-02T08:13:55.723Z,10300
2018-04-02T08:14:21.204Z,10176
2018-04-02T08:14:46.718Z,9792
2018-04-02T08:15:12.188Z,9592
2018-04-02T08:15:37.698Z,9500
2018-04-02T08:16:03.169Z,9448
2018-04-02T08:16:28.674Z,9528
2018-04-02T08:16:54.184Z,9736
2018-04-02T08:17:19.700Z,10092
2018-04-02T08:17:45.191Z,10272
2018-04-02T08:18:10.652Z,10452
2018-04-02T08:18:36.136Z,10664
2018-04-02T08:19:01.616Z,10960
2018-04-02T08:19:27.096Z,11368
2018-04-02T08:19:52.595Z,11468
2018-04-02T08:20:18.074Z,11560
2018-04-02T08:20:43.539Z,11752
2018-04-02T08:21:09.020Z,12140
2018-04-02T08:21:34.505Z,12096
2018-04-02T08:22:00.004Z,11980
2018-04-02T08:22:25.464Z,11564
2018-04-02T08:22:50.960Z,11272
2018-04-02T08:23:59.658Z,11408
2018-04-02T08:24:25.137Z,11392
2018-04-02T08:24:50.653Z,11448
2018-04-02T08:25:16.064Z,11496
2018-04-02T08:25:41.532Z,11520
2018-04-02T08:26:07.034Z,11424
2018-04-02T08:26:32.528Z,11288
2018-04-02T08:26:58.012Z,11136
2018-04-02T08:27:23.502Z,10940
2018-04-02T08:27:48.963Z,10788
2018-04-02T08:28:14.484Z,10572
2018-04-02T08:28:40.019Z,10292
2018-04-02T08:29:05.497Z,10140
2018-04-02T08:29:30.990Z,10144
2018-04-02T08:29:56.499Z,10176
2018-04-02T08:30:22.033Z,10180
2018-04-02T08:30:47.527Z,10160
2018-04-02T08:31:13.018Z,10148
2018-04-02T08:31:38.509Z,10172
2018-04-02T08:32:03.985Z,10236
2018-04-02T08:32:29.515Z,10868
2018-04-02T08:32:54.922Z,9984
2018-04-02T08:33:20.389Z,9620
2018-04-02T08:33:45.897Z,9556
2018-04-02T08:34:11.372Z,9652
2018-04-02T08:34:36.846Z,9936
2018-04-02T08:35:02.326Z,10656
2018-04-02T08:35:27.808Z,11088
2018-04-02T08:35:53.258Z,11588
2018-04-02T08:36:18.770Z,11008
2018-04-02T08:36:44.256Z,10648
2018-04-02T08:37:09.705Z,10456
2018-04-02T08:37:35.189Z,10220
2018-04-02T08:38:00.679Z,10024
2018-04-02T08:38:26.164Z,9856
2018-04-02T08:38:51.776Z,10036
2018-04-02T08:39:17.195Z,10156
2018-04-02T08:39:42.688Z,9988
2018-04-02T08:40:08.171Z,9928
2018-04-02T08:40:33.680Z,9852
2018-04-02T08:40:59.189Z,9608
2018-04-02T08:41:24.709Z,9508
2018-04-02T08:41:50.214Z,9344
2018-04-02T08:42:15.704Z,9324
2018-04-02T08:42:41.190Z,9372
2018-04-02T08:43:06.688Z,9492
2018-04-02T08:43:32.165Z,9592
2018-04-02T08:43:57.649Z,9640
2018-04-02T08:44:23.141Z,9884
2018-04-02T08:44:48.634Z,10268
2018-04-02T08:45:14.131Z,10688
2018-04-02T08:45:39.602Z,11008
2018-04-02T08:46:05.082Z,11280
2018-04-02T08:46:30.554Z,11488
2018-04-02T08:46:56.073Z,11544
2018-04-02T08:47:21.605Z,11484
2018-04-02T08:47:47.121Z,11400
2018-04-02T08:48:12.604Z,11304
2018-04-02T08:48:38.096Z,11024
2018-04-02T08:49:03.572Z,10760
2018-04-02T08:49:29.051Z,10612
2018-04-02T08:49:54.577Z,10564
2018-04-02T08:50:20.101Z,10640
2018-04-02T08:50:45.562Z,10724
2018-04-02T08:51:11.057Z,10752
2018-04-02T08:51:36.535Z,10652
2018-04-02T08:52:02.062Z,10580
2018-04-02T08:52:27.542Z,10560
2018-04-02T08:52:53.037Z,10564
2018-04-02T08:53:18.523Z,10556
2018-04-02T08:53:44.008Z,10488
2018-04-02T08:54:09.508Z,10352
2018-04-02T08:54:35.022Z,10176
2018-04-02T08:55:00.516Z,9988
2018-04-02T08:55:26.052Z,9916
2018-04-02T08:55:51.509Z,10008
2018-04-02T08:56:17.033Z,10200
2018-04-02T08:56:42.501Z,10424
2018-04-02T08:57:08.023Z,10696
2018-04-02T08:57:33.518Z,11008
2018-04-02T08:57:58.999Z,11456
2018-04-02T08:58:24.528Z,12108
2018-04-02T08:58:49.953Z,12732
2018-04-02T08:59:15.463Z,13304
2018-04-02T08:59:40.965Z,13608
2018-04-02T09:00:06.428Z,13744
2018-04-02T09:00:31.915Z,13744
2018-04-02T09:00:57.470Z,13616
2018-04-02T09:01:22.913Z,13440
2018-04-02T09:01:48.451Z,13288
2018-04-02T09:02:13.944Z,13216
2018-04-02T09:02:39.441Z,13112
2018-04-02T09:03:04.916Z,13068
2018-04-02T09:03:30.431Z,13072
2018-04-02T09:03:55.942Z,13156
2018-04-02T09:04:21.457Z,13204
2018-04-02T09:04:46.973Z,13212
2018-04-02T09:05:12.487Z,13204
2018-04-02T09:05:37.952Z,13092
2018-04-02T09:06:03.487Z,12912
2018-04-02T09:06:28.984Z,12568
2018-04-02T09:06:54.498Z,12352
2018-04-02T09:07:19.980Z,12268
2018-04-02T09:07:45.482Z,12272
2018-04-02T09:08:10.976Z,12380
2018-04-02T09:08:36.500Z,12620
2018-04-02T09:09:01.992Z,12588
2018-04-02T09:10:16.761Z,12328
2018-04-02T09:10:42.254Z,12212
2018-04-02T09:11:07.728Z,12232
2018-04-02T09:11:33.183Z,12228
2018-04-02T09:11:58.699Z,12204
2018-04-02T09:12:24.184Z,12008
2018-04-02T09:12:49.664Z,11728
2018-04-02T09:13:15.189Z,11396
2018-04-02T09:13:40.640Z,11136
2018-04-02T09:14:06.143Z,10960
2018-04-02T09:14:31.646Z,10880
2018-04-02T09:14:57.121Z,10776
2018-04-02T09:15:22.646Z,10668
2018-04-02T09:15:48.147Z,10656
2018-04-02T09:16:13.626Z,10740
2018-04-02T09:16:39.137Z,10912
2018-04-02T09:17:04.634Z,11112
2018-04-02T09:17:30.177Z,11244
2018-04-02T09:17:55.619Z,11272
2018-04-02T09:18:21.111Z,11140
2018-04-02T09:18:46.598Z,10940
2018-04-02T09:19:12.090Z,10704
2018-04-02T09:19:37.576Z,10512
2018-04-02T09:20:03.074Z,10392
2018-04-02T09:20:28.564Z,10288
2018-04-02T09:20:54.040Z,10164
2018-04-02T09:21:19.575Z,10044
2018-04-02T09:21:45.078Z,9948
2018-04-02T09:22:10.582Z,9912
2018-04-02T09:22:36.063Z,9960
2018-04-02T09:23:01.556Z,10044
2018-04-02T09:23:27.064Z,10144
2018-04-02T09:23:52.562Z,10216
2018-04-02T09:24:18.047Z,10308
2018-04-02T09:24:43.551Z,10384
2018-04-02T09:25:08.987Z,10496
2018-04-02T09:25:34.457Z,10740
2018-04-02T09:25:59.944Z,11016
2018-04-02T09:26:25.393Z,11080
2018-04-02T09:26:50.867Z,11132
2018-04-02T09:27:16.372Z,11100
2018-04-02T09:27:41.842Z,11044
2018-04-02T09:28:07.326Z,10956
2018-04-02T09:28:32.773Z,10892
2018-04-02T09:28:58.237Z,10848
2018-04-02T09:29:23.740Z,10604
2018-04-02T09:29:49.227Z,10364
2018-04-02T09:30:14.725Z,10200
2018-04-02T09:30:40.226Z,10008
2018-04-02T09:31:05.722Z,9884
2018-04-02T09:31:31.182Z,9888
2018-04-02T09:32:55.188Z,9920
2018-04-02T09:33:20.667Z,9948
2018-04-02T09:33:46.138Z,9968
2018-04-02T09:34:11.629Z,9968
2018-04-02T09:34:37.181Z,9992
2018-04-02T09:35:02.609Z,10028
2018-04-02T09:35:28.085Z,10044
2018-04-02T09:35:53.589Z,10212
2018-04-02T09:36:19.117Z,10464
2018-04-02T09:36:44.634Z,10740
2018-04-02T09:37:10.136Z,11068
2018-04-02T09:37:35.636Z,11432
2018-04-02T09:38:01.165Z,11844
2018-04-02T09:38:26.700Z,12200
2018-04-02T09:38:52.154Z,12428
2018-04-02T09:39:17.590Z,12564
2018-04-02T09:39:43.091Z,12684
2018-04-02T09:40:08.585Z,12796
2018-04-02T09:41:17.278Z,13108
2018-04-02T09:41:42.774Z,13092
2018-04-02T09:42:08.263Z,12960
2018-04-02T09:42:33.754Z,12736
2018-04-02T09:42:59.233Z,12484
2018-04-02T09:43:24.720Z,12232
2018-04-02T09:43:50.179Z,12136
2018-04-02T09:44:15.718Z,12284
2018-04-02T09:44:41.193Z,12612
2018-04-02T09:45:06.676Z,12924
2018-04-02T09:45:32.205Z,13176
2018-04-02T09:45:57.685Z,13336
2018-04-02T09:46:23.206Z,13392
2018-04-02T09:46:48.687Z,13436
2018-04-02T09:47:14.190Z,13536
2018-04-02T09:47:39.719Z,13580
2018-04-02T09:48:05.139Z,13544
2018-04-02T09:48:30.635Z,13396
2018-04-02T09:48:56.117Z,13212
2018-04-02T09:49:21.627Z,13008
2018-04-02T09:49:47.122Z,12884
2018-04-02T09:50:12.621Z,12840
2018-04-02T09:50:38.119Z,12832
2018-04-02T09:51:03.610Z,12908
2018-04-02T09:51:29.115Z,13024
2018-04-02T09:51:54.612Z,13280
2018-04-02T09:52:20.107Z,13392
2018-04-02T09:52:45.577Z,13408
2018-04-02T09:53:11.032Z,13144
2018-04-02T09:53:36.556Z,12804
2018-04-02T09:54:02.050Z,12520
2018-04-02T09:54:27.531Z,12412
2018-04-02T09:54:52.986Z,12524
2018-04-02T09:55:18.492Z,12816
2018-04-02T09:55:44.001Z,13116
2018-04-02T09:57:08.022Z,13616
2018-04-02T09:57:33.520Z,13572
2018-04-02T09:57:59.049Z,13376
2018-04-02T09:58:24.551Z,13032
2018-04-02T09:58:50.059Z,12588